sensor_id;sensor_type;location;lat;lon;timestamp;P1;durP1;ratioP1;P2;durP2;ratioP2
13866;SDS011;7003;46.982;15.248;2023-09-12T00:02:14;11.98;;;10.38;;
13866;SDS011;7003;46.982;15.248;2023-09-12T00:04:44;12.82;;;10.40;;
13866;SDS011;7003;46.982;15.248;2023-09-12T00:07:13;11.90;;;10.32;;
13866;SDS011;7003;46.982;15.248;2023-09-12T00:09:43;12.00;;;10.32;;
13866;SDS011;7003;46.982;15.248;2023-09-12T00:12:12;12.88;;;11.55;;
13866;SDS011;7003;46.982;15.248;2023-09-12T00:14:40;12.02;;;10.65;;
13866;SDS011;7003;46.982;15.248;2023-09-12T00:17:10;12.60;;;9.23;;
13866;SDS011;7003;46.982;15.248;2023-09-12T00:19:38;12.30;;;10.95;;
13866;SDS011;7003;46.982;15.248;2023-09-12T00:22:06;11.02;;;9.98;;
13866;SDS011;7003;46.982;15.248;2023-09-12T00:24:37;12.70;;;10.32;;
13866;SDS011;7003;46.982;15.248;2023-09-12T00:27:07;11.95;;;10.75;;
13866;SDS011;7003;46.982;15.248;2023-09-12T00:29:37;11.82;;;10.38;;
13866;SDS011;7003;46.982;15.248;2023-09-12T00:32:07;12.82;;;11.65;;
13866;SDS011;7003;46.982;15.248;2023-09-12T00:34:35;14.05;;;10.88;;
13866;SDS011;7003;46.982;15.248;2023-09-12T00:37:05;11.05;;;10.00;;
13866;SDS011;7003;46.982;15.248;2023-09-12T00:39:33;11.63;;;10.50;;
13866;SDS011;7003;46.982;15.248;2023-09-12T00:42:03;10.82;;;9.77;;
13866;SDS011;7003;46.982;15.248;2023-09-12T00:44:37;12.48;;;11.18;;
13866;SDS011;7003;46.982;15.248;2023-09-12T00:47:04;10.82;;;9.88;;
13866;SDS011;7003;46.982;15.248;2023-09-12T00:49:32;13.18;;;11.57;;
13866;SDS011;7003;46.982;15.248;2023-09-12T00:52:01;12.85;;;11.50;;
13866;SDS011;7003;46.982;15.248;2023-09-12T00:54:32;11.77;;;10.27;;
13866;SDS011;7003;46.982;15.248;2023-09-12T00:57:02;12.63;;;11.52;;
13866;SDS011;7003;46.982;15.248;2023-09-12T00:59:30;10.25;;;9.20;;
13866;SDS011;7003;46.982;15.248;2023-09-12T01:02:00;12.70;;;11.45;;
13866;SDS011;7003;46.982;15.248;2023-09-12T01:04:29;11.10;;;9.40;;
13866;SDS011;7003;46.982;15.248;2023-09-12T01:07:02;12.07;;;10.82;;
13866;SDS011;7003;46.982;15.248;2023-09-12T01:09:31;11.88;;;10.70;;
13866;SDS011;7003;46.982;15.248;2023-09-12T01:12:01;12.07;;;10.85;;
13866;SDS011;7003;46.982;15.248;2023-09-12T01:14:29;11.23;;;10.07;;
13866;SDS011;7003;46.982;15.248;2023-09-12T01:17:01;13.48;;;11.05;;
13866;SDS011;7003;46.982;15.248;2023-09-12T01:19:31;11.15;;;10.07;;
13866;SDS011;7003;46.982;15.248;2023-09-12T01:25:08;13.57;;;10.73;;
13866;SDS011;7003;46.982;15.248;2023-09-12T01:27:50;10.90;;;9.85;;
13866;SDS011;7003;46.982;15.248;2023-09-12T01:30:20;12.93;;;11.63;;
13866;SDS011;7003;46.982;15.248;2023-09-12T01:32:51;12.80;;;11.48;;
13866;SDS011;7003;46.982;15.248;2023-09-12T01:35:20;14.05;;;12.40;;
13866;SDS011;7003;46.982;15.248;2023-09-12T01:37:50;11.77;;;10.57;;
13866;SDS011;7003;46.982;15.248;2023-09-12T01:40:20;13.50;;;12.18;;
13866;SDS011;7003;46.982;15.248;2023-09-12T01:42:59;12.93;;;10.60;;
13866;SDS011;7003;46.982;15.248;2023-09-12T01:45:27;12.85;;;10.02;;
13866;SDS011;7003;46.982;15.248;2023-09-12T01:47:55;11.52;;;10.32;;
13866;SDS011;7003;46.982;15.248;2023-09-12T01:50:25;13.23;;;11.18;;
13866;SDS011;7003;46.982;15.248;2023-09-12T01:52:56;11.32;;;10.27;;
13866;SDS011;7003;46.982;15.248;2023-09-12T01:55:24;11.93;;;10.77;;
13866;SDS011;7003;46.982;15.248;2023-09-12T01:57:53;10.75;;;9.57;;
13866;SDS011;7003;46.982;15.248;2023-09-12T02:00:22;11.55;;;10.45;;
13866;SDS011;7003;46.982;15.248;2023-09-12T02:02:51;13.05;;;9.60;;
13866;SDS011;7003;46.982;15.248;2023-09-12T02:05:21;12.93;;;10.65;;
13866;SDS011;7003;46.982;15.248;2023-09-12T02:07:48;12.43;;;10.43;;
13866;SDS011;7003;46.982;15.248;2023-09-12T02:10:18;13.30;;;9.52;;
13866;SDS011;7003;46.982;15.248;2023-09-12T02:12:45;11.18;;;10.13;;
13866;SDS011;7003;46.982;15.248;2023-09-12T02:15:13;12.70;;;10.13;;
13866;SDS011;7003;46.982;15.248;2023-09-12T02:17:45;15.50;;;10.48;;
13866;SDS011;7003;46.982;15.248;2023-09-12T02:20:14;16.85;;;10.45;;
13866;SDS011;7003;46.982;15.248;2023-09-12T02:22:42;11.55;;;10.38;;
13866;SDS011;7003;46.982;15.248;2023-09-12T02:25:11;18.10;;;10.35;;
13866;SDS011;7003;46.982;15.248;2023-09-12T02:27:38;12.40;;;10.27;;
13866;SDS011;7003;46.982;15.248;2023-09-12T02:30:05;12.80;;;11.48;;
13866;SDS011;7003;46.982;15.248;2023-09-12T02:32:36;13.20;;;11.48;;
13866;SDS011;7003;46.982;15.248;2023-09-12T02:35:05;14.20;;;9.55;;
13866;SDS011;7003;46.982;15.248;2023-09-12T02:37:33;12.20;;;11.00;;
13866;SDS011;7003;46.982;15.248;2023-09-12T02:40:01;12.35;;;10.85;;
13866;SDS011;7003;46.982;15.248;2023-09-12T02:42:28;13.63;;;11.43;;
13866;SDS011;7003;46.982;15.248;2023-09-12T02:44:55;18.88;;;13.27;;
13866;SDS011;7003;46.982;15.248;2023-09-12T02:47:22;13.95;;;12.15;;
13866;SDS011;7003;46.982;15.248;2023-09-12T02:49:50;12.93;;;11.48;;
13866;SDS011;7003;46.982;15.248;2023-09-12T02:52:18;12.32;;;11.05;;
13866;SDS011;7003;46.982;15.248;2023-09-12T02:54:45;11.63;;;10.43;;
13866;SDS011;7003;46.982;15.248;2023-09-12T02:57:15;12.77;;;11.10;;
13866;SDS011;7003;46.982;15.248;2023-09-12T02:59:44;13.43;;;11.63;;
13866;SDS011;7003;46.982;15.248;2023-09-12T03:02:11;13.13;;;11.93;;
13866;SDS011;7003;46.982;15.248;2023-09-12T03:04:41;11.23;;;10.02;;
13866;SDS011;7003;46.982;15.248;2023-09-12T03:07:08;12.20;;;11.10;;
13866;SDS011;7003;46.982;15.248;2023-09-12T03:09:37;12.65;;;11.23;;
13866;SDS011;7003;46.982;15.248;2023-09-12T03:12:04;13.48;;;10.30;;
13866;SDS011;7003;46.982;15.248;2023-09-12T03:14:34;10.32;;;9.15;;
13866;SDS011;7003;46.982;15.248;2023-09-12T03:17:02;10.68;;;9.57;;
13866;SDS011;7003;46.982;15.248;2023-09-12T03:19:29;13.00;;;9.80;;
13866;SDS011;7003;46.982;15.248;2023-09-12T03:21:57;10.90;;;9.75;;
13866;SDS011;7003;46.982;15.248;2023-09-12T03:24:27;11.00;;;9.57;;
13866;SDS011;7003;46.982;15.248;2023-09-12T03:26:58;11.52;;;10.20;;
13866;SDS011;7003;46.982;15.248;2023-09-12T03:29:28;9.73;;;8.82;;
13866;SDS011;7003;46.982;15.248;2023-09-12T03:32:15;13.07;;;11.73;;
13866;SDS011;7003;46.982;15.248;2023-09-12T03:34:45;13.13;;;10.32;;
13866;SDS011;7003;46.982;15.248;2023-09-12T03:37:12;10.10;;;9.00;;
13866;SDS011;7003;46.982;15.248;2023-09-12T03:39:41;11.27;;;9.77;;
13866;SDS011;7003;46.982;15.248;2023-09-12T03:42:10;10.55;;;9.48;;
13866;SDS011;7003;46.982;15.248;2023-09-12T03:44:41;10.52;;;9.43;;
13866;SDS011;7003;46.982;15.248;2023-09-12T03:47:10;10.23;;;8.55;;
13866;SDS011;7003;46.982;15.248;2023-09-12T03:49:37;9.48;;;8.55;;
13866;SDS011;7003;46.982;15.248;2023-09-12T03:52:07;11.35;;;9.10;;
13866;SDS011;7003;46.982;15.248;2023-09-12T03:54:34;15.45;;;10.70;;
13866;SDS011;7003;46.982;15.248;2023-09-12T03:57:01;11.65;;;10.43;;
13866;SDS011;7003;46.982;15.248;2023-09-12T03:59:29;14.77;;;10.35;;
13866;SDS011;7003;46.982;15.248;2023-09-12T04:01:59;10.30;;;9.30;;
13866;SDS011;7003;46.982;15.248;2023-09-12T04:04:28;14.05;;;10.63;;
13866;SDS011;7003;46.982;15.248;2023-09-12T04:06:57;11.40;;;10.20;;
13866;SDS011;7003;46.982;15.248;2023-09-12T04:09:25;17.92;;;10.05;;
13866;SDS011;7003;46.982;15.248;2023-09-12T04:11:55;12.98;;;10.13;;
13866;SDS011;7003;46.982;15.248;2023-09-12T04:14:23;12.02;;;10.82;;
13866;SDS011;7003;46.982;15.248;2023-09-12T04:16:52;14.38;;;9.93;;
13866;SDS011;7003;46.982;15.248;2023-09-12T04:19:22;16.88;;;9.68;;
13866;SDS011;7003;46.982;15.248;2023-09-12T04:21:49;11.13;;;9.63;;
13866;SDS011;7003;46.982;15.248;2023-09-12T04:24:20;9.93;;;8.73;;
13866;SDS011;7003;46.982;15.248;2023-09-12T04:26:47;10.82;;;8.82;;
13866;SDS011;7003;46.982;15.248;2023-09-12T04:29:15;9.27;;;8.32;;
13866;SDS011;7003;46.982;15.248;2023-09-12T04:31:44;8.68;;;7.85;;
13866;SDS011;7003;46.982;15.248;2023-09-12T04:34:14;9.75;;;8.55;;
13866;SDS011;7003;46.982;15.248;2023-09-12T04:36:45;10.38;;;9.38;;
13866;SDS011;7003;46.982;15.248;2023-09-12T04:39:16;10.82;;;9.52;;
13866;SDS011;7003;46.982;15.248;2023-09-12T04:41:44;10.82;;;9.55;;
13866;SDS011;7003;46.982;15.248;2023-09-12T04:44:12;10.50;;;9.40;;
13866;SDS011;7003;46.982;15.248;2023-09-12T04:46:40;13.30;;;9.77;;
13866;SDS011;7003;46.982;15.248;2023-09-12T04:49:08;11.40;;;9.20;;
13866;SDS011;7003;46.982;15.248;2023-09-12T04:51:38;11.65;;;10.30;;
13866;SDS011;7003;46.982;15.248;2023-09-12T04:54:06;10.73;;;9.63;;
13866;SDS011;7003;46.982;15.248;2023-09-12T04:56:36;11.02;;;9.07;;
13866;SDS011;7003;46.982;15.248;2023-09-12T04:59:06;10.70;;;8.93;;
13866;SDS011;7003;46.982;15.248;2023-09-12T05:01:37;15.30;;;10.20;;
13866;SDS011;7003;46.982;15.248;2023-09-12T05:04:06;8.85;;;7.95;;
13866;SDS011;7003;46.982;15.248;2023-09-12T05:06:34;10.50;;;8.90;;
13866;SDS011;7003;46.982;15.248;2023-09-12T05:09:03;11.05;;;9.82;;
13866;SDS011;7003;46.982;15.248;2023-09-12T05:11:34;14.55;;;8.18;;
13866;SDS011;7003;46.982;15.248;2023-09-12T05:14:02;10.35;;;8.35;;
13866;SDS011;7003;46.982;15.248;2023-09-12T05:16:33;11.55;;;9.23;;
13866;SDS011;7003;46.982;15.248;2023-09-12T05:19:04;9.80;;;8.80;;
13866;SDS011;7003;46.982;15.248;2023-09-12T05:21:33;12.02;;;10.82;;
13866;SDS011;7003;46.982;15.248;2023-09-12T05:24:03;10.48;;;9.48;;
13866;SDS011;7003;46.982;15.248;2023-09-12T05:26:38;10.23;;;9.02;;
13866;SDS011;7003;46.982;15.248;2023-09-12T05:29:07;10.18;;;8.70;;
13866;SDS011;7003;46.982;15.248;2023-09-12T05:31:35;10.23;;;8.60;;
13866;SDS011;7003;46.982;15.248;2023-09-12T05:34:03;11.55;;;9.38;;
13866;SDS011;7003;46.982;15.248;2023-09-12T05:36:31;9.70;;;8.70;;
13866;SDS011;7003;46.982;15.248;2023-09-12T05:39:04;9.07;;;8.25;;
13866;SDS011;7003;46.982;15.248;2023-09-12T05:41:35;11.05;;;9.35;;
13866;SDS011;7003;46.982;15.248;2023-09-12T05:44:03;9.48;;;8.48;;
13866;SDS011;7003;46.982;15.248;2023-09-12T05:46:31;11.70;;;10.45;;
13866;SDS011;7003;46.982;15.248;2023-09-12T05:48:59;10.25;;;9.23;;
13866;SDS011;7003;46.982;15.248;2023-09-12T05:51:30;13.10;;;9.80;;
13866;SDS011;7003;46.982;15.248;2023-09-12T05:53:58;17.75;;;11.23;;
13866;SDS011;7003;46.982;15.248;2023-09-12T05:56:30;11.23;;;10.02;;
13866;SDS011;7003;46.982;15.248;2023-09-12T05:59:01;12.35;;;9.68;;
13866;SDS011;7003;46.982;15.248;2023-09-12T06:01:30;16.27;;;10.02;;
13866;SDS011;7003;46.982;15.248;2023-09-12T06:04:01;11.73;;;9.77;;
13866;SDS011;7003;46.982;15.248;2023-09-12T06:06:32;12.65;;;10.23;;
13866;SDS011;7003;46.982;15.248;2023-09-12T06:09:03;11.10;;;9.43;;
13866;SDS011;7003;46.982;15.248;2023-09-12T06:11:33;10.60;;;9.52;;
13866;SDS011;7003;46.982;15.248;2023-09-12T06:14:04;9.68;;;8.65;;
13866;SDS011;7003;46.982;15.248;2023-09-12T06:16:32;10.75;;;9.25;;
13866;SDS011;7003;46.982;15.248;2023-09-12T06:19:01;10.85;;;9.75;;
13866;SDS011;7003;46.982;15.248;2023-09-12T06:21:30;10.57;;;9.45;;
13866;SDS011;7003;46.982;15.248;2023-09-12T06:24:10;10.48;;;9.20;;
13866;SDS011;7003;46.982;15.248;2023-09-12T06:26:43;11.23;;;10.13;;
13866;SDS011;7003;46.982;15.248;2023-09-12T06:29:11;10.80;;;8.85;;
13866;SDS011;7003;46.982;15.248;2023-09-12T06:31:39;12.90;;;9.30;;
13866;SDS011;7003;46.982;15.248;2023-09-12T06:34:10;9.80;;;8.80;;
13866;SDS011;7003;46.982;15.248;2023-09-12T06:36:38;9.65;;;8.73;;
13866;SDS011;7003;46.982;15.248;2023-09-12T06:39:07;8.63;;;7.82;;
13866;SDS011;7003;46.982;15.248;2023-09-12T06:41:37;9.65;;;7.70;;
13866;SDS011;7003;46.982;15.248;2023-09-12T06:44:06;9.30;;;8.18;;
13866;SDS011;7003;46.982;15.248;2023-09-12T06:46:37;8.57;;;7.78;;
13866;SDS011;7003;46.982;15.248;2023-09-12T06:49:04;11.80;;;9.15;;
13866;SDS011;7003;46.982;15.248;2023-09-12T06:51:34;9.88;;;8.88;;
13866;SDS011;7003;46.982;15.248;2023-09-12T06:54:02;10.40;;;8.98;;
13866;SDS011;7003;46.982;15.248;2023-09-12T06:56:29;13.50;;;9.45;;
13866;SDS011;7003;46.982;15.248;2023-09-12T06:59:00;7.80;;;7.10;;
13866;SDS011;7003;46.982;15.248;2023-09-12T07:01:29;8.65;;;6.93;;
13866;SDS011;7003;46.982;15.248;2023-09-12T07:04:00;10.95;;;7.43;;
13866;SDS011;7003;46.982;15.248;2023-09-12T07:06:28;7.70;;;6.90;;
13866;SDS011;7003;46.982;15.248;2023-09-12T07:08:56;10.80;;;8.25;;
13866;SDS011;7003;46.982;15.248;2023-09-12T07:11:24;8.93;;;7.05;;
13866;SDS011;7003;46.982;15.248;2023-09-12T07:13:54;8.73;;;7.70;;
13866;SDS011;7003;46.982;15.248;2023-09-12T07:16:22;8.45;;;7.38;;
13866;SDS011;7003;46.982;15.248;2023-09-12T07:18:51;8.10;;;7.30;;
13866;SDS011;7003;46.982;15.248;2023-09-12T07:21:20;11.82;;;7.75;;
13866;SDS011;7003;46.982;15.248;2023-09-12T07:23:50;8.57;;;7.47;;
13866;SDS011;7003;46.982;15.248;2023-09-12T07:26:17;10.80;;;9.68;;
13866;SDS011;7003;46.982;15.248;2023-09-12T07:28:47;14.77;;;6.95;;
13866;SDS011;7003;46.982;15.248;2023-09-12T07:31:15;8.45;;;6.97;;
13866;SDS011;7003;46.982;15.248;2023-09-12T07:33:46;8.02;;;6.63;;
13866;SDS011;7003;46.982;15.248;2023-09-12T07:36:17;8.40;;;6.28;;
13866;SDS011;7003;46.982;15.248;2023-09-12T07:38:44;13.00;;;6.65;;
13866;SDS011;7003;46.982;15.248;2023-09-12T07:41:14;9.65;;;7.53;;
13866;SDS011;7003;46.982;15.248;2023-09-12T07:43:42;7.57;;;6.68;;
13866;SDS011;7003;46.982;15.248;2023-09-12T07:46:11;13.10;;;7.25;;
13866;SDS011;7003;46.982;15.248;2023-09-12T07:48:38;7.70;;;6.88;;
13866;SDS011;7003;46.982;15.248;2023-09-12T07:51:16;9.65;;;6.95;;
13866;SDS011;7003;46.982;15.248;2023-09-12T07:53:45;7.90;;;6.90;;
13866;SDS011;7003;46.982;15.248;2023-09-12T07:56:14;8.45;;;7.47;;
13866;SDS011;7003;46.982;15.248;2023-09-12T07:58:44;8.15;;;7.15;;
13866;SDS011;7003;46.982;15.248;2023-09-12T08:01:12;8.48;;;7.68;;
13866;SDS011;7003;46.982;15.248;2023-09-12T08:03:42;7.38;;;6.55;;
13866;SDS011;7003;46.982;15.248;2023-09-12T08:06:10;12.75;;;8.52;;
13866;SDS011;7003;46.982;15.248;2023-09-12T08:08:39;9.65;;;7.43;;
13866;SDS011;7003;46.982;15.248;2023-09-12T08:11:06;9.45;;;7.10;;
13866;SDS011;7003;46.982;15.248;2023-09-12T08:13:37;8.88;;;7.13;;
13866;SDS011;7003;46.982;15.248;2023-09-12T08:16:06;11.02;;;7.65;;
13866;SDS011;7003;46.982;15.248;2023-09-12T08:18:34;9.82;;;7.22;;
13866;SDS011;7003;46.982;15.248;2023-09-12T08:21:01;8.60;;;7.72;;
13866;SDS011;7003;46.982;15.248;2023-09-12T08:23:31;8.73;;;7.85;;
13866;SDS011;7003;46.982;15.248;2023-09-12T08:26:00;8.60;;;7.22;;
13866;SDS011;7003;46.982;15.248;2023-09-12T08:28:30;9.45;;;8.50;;
13866;SDS011;7003;46.982;15.248;2023-09-12T08:30:58;8.27;;;7.40;;
13866;SDS011;7003;46.982;15.248;2023-09-12T08:33:25;10.30;;;7.80;;
13866;SDS011;7003;46.982;15.248;2023-09-12T08:35:53;8.60;;;7.72;;
13866;SDS011;7003;46.982;15.248;2023-09-12T08:38:22;14.65;;;7.72;;
13866;SDS011;7003;46.982;15.248;2023-09-12T08:40:50;7.90;;;6.80;;
13866;SDS011;7003;46.982;15.248;2023-09-12T08:43:22;10.80;;;7.88;;
13866;SDS011;7003;46.982;15.248;2023-09-12T08:45:49;8.63;;;7.47;;
13866;SDS011;7003;46.982;15.248;2023-09-12T08:48:20;10.43;;;8.60;;
13866;SDS011;7003;46.982;15.248;2023-09-12T08:50:48;8.70;;;7.30;;
13866;SDS011;7003;46.982;15.248;2023-09-12T08:53:19;8.20;;;7.03;;
13866;SDS011;7003;46.982;15.248;2023-09-12T08:55:51;12.82;;;9.13;;
13866;SDS011;7003;46.982;15.248;2023-09-12T08:58:25;7.70;;;6.93;;
13866;SDS011;7003;46.982;15.248;2023-09-12T09:00:55;9.63;;;8.45;;
13866;SDS011;7003;46.982;15.248;2023-09-12T09:03:23;8.57;;;7.65;;
13866;SDS011;7003;46.982;15.248;2023-09-12T09:05:51;8.30;;;7.50;;
13866;SDS011;7003;46.982;15.248;2023-09-12T09:08:21;10.85;;;8.57;;
13866;SDS011;7003;46.982;15.248;2023-09-12T09:10:54;11.00;;;7.85;;
13866;SDS011;7003;46.982;15.248;2023-09-12T09:13:26;10.40;;;8.30;;
13866;SDS011;7003;46.982;15.248;2023-09-12T09:21:22;9.38;;;7.40;;
13866;SDS011;7003;46.982;15.248;2023-09-12T09:23:51;10.68;;;8.13;;
13866;SDS011;7003;46.982;15.248;2023-09-12T09:26:19;12.15;;;8.27;;
13866;SDS011;7003;46.982;15.248;2023-09-12T09:31:35;8.85;;;7.75;;
13866;SDS011;7003;46.982;15.248;2023-09-12T09:34:10;11.45;;;7.82;;
13866;SDS011;7003;46.982;15.248;2023-09-12T09:36:40;8.00;;;6.70;;
13866;SDS011;7003;46.982;15.248;2023-09-12T09:39:11;11.77;;;8.00;;
13866;SDS011;7003;46.982;15.248;2023-09-12T09:41:40;8.13;;;7.40;;
13866;SDS011;7003;46.982;15.248;2023-09-12T09:44:09;9.38;;;8.45;;
13866;SDS011;7003;46.982;15.248;2023-09-12T09:46:36;10.77;;;8.05;;
13866;SDS011;7003;46.982;15.248;2023-09-12T09:49:04;8.10;;;7.30;;
13866;SDS011;7003;46.982;15.248;2023-09-12T09:51:40;11.30;;;8.38;;
13866;SDS011;7003;46.982;15.248;2023-09-12T09:54:08;10.80;;;7.43;;
13866;SDS011;7003;46.982;15.248;2023-09-12T09:56:44;9.35;;;8.45;;
13866;SDS011;7003;46.982;15.248;2023-09-12T09:59:17;14.32;;;8.20;;
13866;SDS011;7003;46.982;15.248;2023-09-12T10:01:50;11.52;;;8.05;;
13866;SDS011;7003;46.982;15.248;2023-09-12T10:04:21;8.82;;;8.00;;
13866;SDS011;7003;46.982;15.248;2023-09-12T10:06:52;8.75;;;6.32;;
13866;SDS011;7003;46.982;15.248;2023-09-12T10:09:26;9.02;;;7.50;;
13866;SDS011;7003;46.982;15.248;2023-09-12T10:11:55;8.43;;;7.63;;
13866;SDS011;7003;46.982;15.248;2023-09-12T10:14:28;8.65;;;7.85;;
13866;SDS011;7003;46.982;15.248;2023-09-12T10:17:00;10.15;;;8.85;;
13866;SDS011;7003;46.982;15.248;2023-09-12T10:19:32;9.40;;;7.90;;
13866;SDS011;7003;46.982;15.248;2023-09-12T10:22:06;10.05;;;8.82;;
13866;SDS011;7003;46.982;15.248;2023-09-12T10:24:41;9.73;;;8.55;;
13866;SDS011;7003;46.982;15.248;2023-09-12T10:27:10;9.38;;;7.93;;
13866;SDS011;7003;46.982;15.248;2023-09-12T10:29:41;9.02;;;8.13;;
13866;SDS011;7003;46.982;15.248;2023-09-12T10:32:15;10.18;;;9.20;;
13866;SDS011;7003;46.982;15.248;2023-09-12T10:34:45;12.25;;;8.27;;
13866;SDS011;7003;46.982;15.248;2023-09-12T10:37:17;9.13;;;8.23;;
13866;SDS011;7003;46.982;15.248;2023-09-12T10:39:51;9.57;;;8.68;;
13866;SDS011;7003;46.982;15.248;2023-09-12T10:42:22;9.82;;;7.93;;
13866;SDS011;7003;46.982;15.248;2023-09-12T10:44:56;9.32;;;8.43;;
13866;SDS011;7003;46.982;15.248;2023-09-12T10:47:26;8.45;;;7.65;;
13866;SDS011;7003;46.982;15.248;2023-09-12T10:49:56;10.52;;;9.45;;
13866;SDS011;7003;46.982;15.248;2023-09-12T10:52:24;10.73;;;9.13;;
13866;SDS011;7003;46.982;15.248;2023-09-12T10:54:52;8.35;;;7.65;;
13866;SDS011;7003;46.982;15.248;2023-09-12T10:57:20;10.77;;;8.77;;
13866;SDS011;7003;46.982;15.248;2023-09-12T11:02:43;9.70;;;8.80;;
13866;SDS011;7003;46.982;15.248;2023-09-12T11:08:03;11.43;;;7.93;;
13866;SDS011;7003;46.982;15.248;2023-09-12T11:10:33;8.43;;;7.63;;
13866;SDS011;7003;46.982;15.248;2023-09-12T11:13:04;10.02;;;8.45;;
13866;SDS011;7003;46.982;15.248;2023-09-12T11:15:33;11.40;;;7.80;;
13866;SDS011;7003;46.982;15.248;2023-09-12T11:18:05;9.70;;;8.60;;
13866;SDS011;7003;46.982;15.248;2023-09-12T11:20:51;9.60;;;8.73;;
13866;SDS011;7003;46.982;15.248;2023-09-12T11:23:20;9.55;;;8.65;;
13866;SDS011;7003;46.982;15.248;2023-09-12T11:25:48;9.70;;;8.48;;
13866;SDS011;7003;46.982;15.248;2023-09-12T11:28:31;8.55;;;7.65;;
13866;SDS011;7003;46.982;15.248;2023-09-12T11:31:02;8.38;;;7.53;;
13866;SDS011;7003;46.982;15.248;2023-09-12T11:33:33;9.30;;;8.40;;
13866;SDS011;7003;46.982;15.248;2023-09-12T11:36:03;11.25;;;7.60;;
13866;SDS011;7003;46.982;15.248;2023-09-12T11:38:35;8.93;;;8.07;;
13866;SDS011;7003;46.982;15.248;2023-09-12T11:41:02;9.40;;;7.75;;
13866;SDS011;7003;46.982;15.248;2023-09-12T11:43:33;8.50;;;7.75;;
13866;SDS011;7003;46.982;15.248;2023-09-12T11:46:09;9.88;;;8.88;;
13866;SDS011;7003;46.982;15.248;2023-09-12T11:48:36;9.82;;;8.43;;
13866;SDS011;7003;46.982;15.248;2023-09-12T11:51:08;9.70;;;8.80;;
13866;SDS011;7003;46.982;15.248;2023-09-12T11:53:35;9.52;;;8.52;;
13866;SDS011;7003;46.982;15.248;2023-09-12T11:56:06;13.05;;;8.48;;
13866;SDS011;7003;46.982;15.248;2023-09-12T11:58:34;9.02;;;8.20;;
13866;SDS011;7003;46.982;15.248;2023-09-12T12:01:04;9.50;;;8.70;;
13866;SDS011;7003;46.982;15.248;2023-09-12T12:03:35;9.88;;;8.88;;
13866;SDS011;7003;46.982;15.248;2023-09-12T12:06:05;10.30;;;8.90;;
13866;SDS011;7003;46.982;15.248;2023-09-12T12:08:32;10.82;;;8.82;;
13866;SDS011;7003;46.982;15.248;2023-09-12T12:11:00;10.25;;;8.88;;
13866;SDS011;7003;46.982;15.248;2023-09-12T12:13:28;9.00;;;7.93;;
13866;SDS011;7003;46.982;15.248;2023-09-12T12:15:56;9.38;;;7.90;;
13866;SDS011;7003;46.982;15.248;2023-09-12T12:18:23;9.90;;;9.00;;
13866;SDS011;7003;46.982;15.248;2023-09-12T12:20:53;9.55;;;8.63;;
13866;SDS011;7003;46.982;15.248;2023-09-12T12:23:21;9.38;;;7.22;;
13866;SDS011;7003;46.982;15.248;2023-09-12T12:25:48;8.82;;;7.85;;
13866;SDS011;7003;46.982;15.248;2023-09-12T12:28:16;7.90;;;7.20;;
13866;SDS011;7003;46.982;15.248;2023-09-12T12:30:46;9.88;;;8.98;;
13866;SDS011;7003;46.982;15.248;2023-09-12T12:33:20;9.27;;;8.48;;
13866;SDS011;7003;46.982;15.248;2023-09-12T12:35:58;9.20;;;8.20;;
13866;SDS011;7003;46.982;15.248;2023-09-12T12:38:27;9.23;;;8.43;;
13866;SDS011;7003;46.982;15.248;2023-09-12T12:40:58;10.43;;;9.43;;
13866;SDS011;7003;46.982;15.248;2023-09-12T12:43:25;9.40;;;8.50;;
13866;SDS011;7003;46.982;15.248;2023-09-12T12:45:53;9.02;;;8.23;;
13866;SDS011;7003;46.982;15.248;2023-09-12T12:48:31;10.63;;;8.38;;
13866;SDS011;7003;46.982;15.248;2023-09-12T12:51:05;9.55;;;8.55;;
13866;SDS011;7003;46.982;15.248;2023-09-12T12:53:45;9.75;;;8.73;;
13866;SDS011;7003;46.982;15.248;2023-09-12T12:56:18;9.77;;;8.90;;
13866;SDS011;7003;46.982;15.248;2023-09-12T12:58:47;10.70;;;9.68;;
13866;SDS011;7003;46.982;15.248;2023-09-12T13:01:19;8.45;;;7.68;;
13866;SDS011;7003;46.982;15.248;2023-09-12T13:03:46;9.38;;;8.48;;
13866;SDS011;7003;46.982;15.248;2023-09-12T13:06:19;9.10;;;8.30;;
13866;SDS011;7003;46.982;15.248;2023-09-12T13:08:47;10.35;;;8.30;;
13866;SDS011;7003;46.982;15.248;2023-09-12T13:11:15;13.35;;;8.90;;
13866;SDS011;7003;46.982;15.248;2023-09-12T13:13:46;9.27;;;8.35;;
13866;SDS011;7003;46.982;15.248;2023-09-12T13:16:18;9.52;;;8.50;;
13866;SDS011;7003;46.982;15.248;2023-09-12T13:18:47;9.63;;;8.75;;
13866;SDS011;7003;46.982;15.248;2023-09-12T13:21:15;9.35;;;8.38;;
13866;SDS011;7003;46.982;15.248;2023-09-12T13:23:44;13.57;;;8.65;;
13866;SDS011;7003;46.982;15.248;2023-09-12T13:26:11;11.25;;;9.00;;
13866;SDS011;7003;46.982;15.248;2023-09-12T13:28:40;10.48;;;9.23;;
13866;SDS011;7003;46.982;15.248;2023-09-12T13:31:11;9.88;;;9.07;;
13866;SDS011;7003;46.982;15.248;2023-09-12T13:33:39;9.93;;;8.90;;
13866;SDS011;7003;46.982;15.248;2023-09-12T13:36:07;9.25;;;8.45;;
13866;SDS011;7003;46.982;15.248;2023-09-12T13:38:35;9.90;;;8.90;;
13866;SDS011;7003;46.982;15.248;2023-09-12T13:41:04;10.30;;;8.23;;
13866;SDS011;7003;46.982;15.248;2023-09-12T13:43:31;11.35;;;10.18;;
13866;SDS011;7003;46.982;15.248;2023-09-12T13:45:58;10.93;;;8.48;;
13866;SDS011;7003;46.982;15.248;2023-09-12T13:48:28;9.57;;;8.63;;
13866;SDS011;7003;46.982;15.248;2023-09-12T13:50:58;9.10;;;8.02;;
13866;SDS011;7003;46.982;15.248;2023-09-12T13:53:28;10.38;;;9.38;;
13866;SDS011;7003;46.982;15.248;2023-09-12T13:55:56;12.35;;;8.13;;
13866;SDS011;7003;46.982;15.248;2023-09-12T13:58:28;9.20;;;8.40;;
13866;SDS011;7003;46.982;15.248;2023-09-12T14:00:58;9.90;;;8.40;;
13866;SDS011;7003;46.982;15.248;2023-09-12T14:03:28;9.55;;;8.55;;
13866;SDS011;7003;46.982;15.248;2023-09-12T14:05:58;8.60;;;7.80;;
13866;SDS011;7003;46.982;15.248;2023-09-12T14:08:25;8.55;;;7.80;;
13866;SDS011;7003;46.982;15.248;2023-09-12T14:10:53;10.10;;;8.23;;
13866;SDS011;7003;46.982;15.248;2023-09-12T14:13:24;8.48;;;7.53;;
13866;SDS011;7003;46.982;15.248;2023-09-12T14:15:55;9.95;;;9.05;;
13866;SDS011;7003;46.982;15.248;2023-09-12T14:18:24;9.57;;;8.65;;
13866;SDS011;7003;46.982;15.248;2023-09-12T14:20:54;8.25;;;7.45;;
13866;SDS011;7003;46.982;15.248;2023-09-12T14:23:23;9.02;;;8.15;;
13866;SDS011;7003;46.982;15.248;2023-09-12T14:25:53;8.85;;;8.05;;
13866;SDS011;7003;46.982;15.248;2023-09-12T14:28:23;9.85;;;8.93;;
13866;SDS011;7003;46.982;15.248;2023-09-12T14:30:51;9.38;;;8.52;;
13866;SDS011;7003;46.982;15.248;2023-09-12T14:33:20;13.35;;;8.40;;
13866;SDS011;7003;46.982;15.248;2023-09-12T14:35:50;8.57;;;7.68;;
13866;SDS011;7003;46.982;15.248;2023-09-12T14:38:20;9.68;;;8.52;;
13866;SDS011;7003;46.982;15.248;2023-09-12T14:40:49;10.23;;;8.40;;
13866;SDS011;7003;46.982;15.248;2023-09-12T14:43:21;10.68;;;8.20;;
13866;SDS011;7003;46.982;15.248;2023-09-12T14:45:49;11.18;;;8.55;;
13866;SDS011;7003;46.982;15.248;2023-09-12T14:48:21;9.18;;;8.32;;
13866;SDS011;7003;46.982;15.248;2023-09-12T14:50:51;8.02;;;7.22;;
13866;SDS011;7003;46.982;15.248;2023-09-12T14:53:19;10.27;;;8.57;;
13866;SDS011;7003;46.982;15.248;2023-09-12T14:55:50;9.13;;;8.32;;
13866;SDS011;7003;46.982;15.248;2023-09-12T14:58:18;10.35;;;8.07;;
13866;SDS011;7003;46.982;15.248;2023-09-12T15:00:48;9.18;;;8.23;;
13866;SDS011;7003;46.982;15.248;2023-09-12T15:03:18;7.88;;;6.82;;
13866;SDS011;7003;46.982;15.248;2023-09-12T15:05:49;8.68;;;7.88;;
13866;SDS011;7003;46.982;15.248;2023-09-12T15:08:17;9.45;;;7.78;;